Terminal Aerodrome Forecast
Issued by NWS

Home | Current Version | Previous Version | Text Only | Print | Product List | Glossary On
Versions: 1 2 3 4 5 6 7 8 9 10 11 12 13 14 15 16 17 18 19
000
FTUS46 KOTX 191148 AAA
TAFSFF
TAF AMD
KSFF 191148Z 1912/2012 20006KT P6SM -RA BKN018 OVC040
     FM191800 21008KT P6SM -SHRA BKN030 OVC050
     FM192100 22011G18KT P6SM VCSH BKN050 BKN080
     FM200100 22007KT P6SM SCT070=

USA.gov is the U.S. government's official web portal to all federal, state and local government web resources and services.